createdAt,value
2023-03-11T00:02:13.419Z,4.75
2023-03-11T00:04:40.095Z,4.69
2023-03-11T00:07:07.500Z,4.55
2023-03-11T00:09:34.430Z,4.45
2023-03-11T00:12:01.249Z,4.40
2023-03-11T00:14:27.885Z,4.34
2023-03-11T00:16:54.542Z,4.33
2023-03-11T00:19:21.338Z,4.26
2023-03-11T00:21:47.824Z,4.22
2023-03-11T00:24:14.396Z,4.17
2023-03-11T00:26:40.917Z,4.12
2023-03-11T00:29:07.440Z,4.10
2023-03-11T00:31:33.932Z,4.08
2023-03-11T00:34:00.568Z,3.99
2023-03-11T00:36:31.900Z,3.95
2023-03-11T00:38:58.889Z,3.88
2023-03-11T00:41:25.389Z,3.84
2023-03-11T00:43:52.228Z,3.81
2023-03-11T00:46:18.856Z,3.78
2023-03-11T00:48:45.356Z,3.77
2023-03-11T00:51:13.611Z,3.76
2023-03-11T00:53:40.203Z,3.70
2023-03-11T00:56:08.112Z,3.76
2023-03-11T00:58:35.864Z,3.72
2023-03-11T01:01:07.361Z,3.76
2023-03-11T01:03:34.185Z,3.84
2023-03-11T01:06:00.760Z,3.94
2023-03-11T01:08:27.308Z,3.98
2023-03-11T01:14:46.719Z,4.30
2023-03-11T01:17:13.244Z,4.65
2023-03-11T01:19:39.804Z,4.68
2023-03-11T01:22:06.325Z,4.74
2023-03-11T01:24:32.893Z,4.84
2023-03-11T01:26:59.402Z,4.86
2023-03-11T01:29:25.914Z,4.80
2023-03-11T01:31:52.558Z,4.79
2023-03-11T01:34:19.203Z,4.81
2023-03-11T01:36:46.040Z,5.02
2023-03-11T01:41:53.111Z,5.06
2023-03-11T01:44:19.651Z,5.05
2023-03-11T01:46:52.438Z,5.01
2023-03-11T01:49:19.640Z,5.03
2023-03-11T01:51:48.815Z,5.14
2023-03-11T01:54:18.469Z,5.10
2023-03-11T01:56:46.423Z,5.15
2023-03-11T01:59:14.564Z,5.07
2023-03-11T02:01:47.646Z,5.04
2023-03-11T02:04:14.190Z,5.01
2023-03-11T02:09:24.200Z,5.13
2023-03-11T02:11:51.400Z,5.26
2023-03-11T02:14:18.071Z,5.45
2023-03-11T02:16:44.577Z,5.63
2023-03-11T02:19:18.508Z,5.84
2023-03-11T02:21:45.220Z,6.01
2023-03-11T02:24:38.088Z,6.05
2023-03-11T02:27:12.529Z,6.13
2023-03-11T02:29:39.290Z,6.21
2023-03-11T02:32:07.356Z,6.23
2023-03-11T02:34:35.342Z,6.23
2023-03-11T02:37:04.954Z,6.33
2023-03-11T02:39:33.436Z,6.28
2023-03-11T02:42:00.672Z,6.10
2023-03-11T02:44:27.285Z,5.98
2023-03-11T02:46:53.968Z,5.84
2023-03-11T02:49:20.880Z,5.70
2023-03-11T02:51:47.539Z,5.66
2023-03-11T02:54:14.288Z,5.54
2023-03-11T02:56:40.826Z,5.54
2023-03-11T02:59:07.344Z,5.39
2023-03-11T03:01:33.923Z,5.26
2023-03-11T03:04:00.515Z,5.11
2023-03-11T03:06:28.725Z,4.97
2023-03-11T03:08:55.534Z,4.91
2023-03-11T03:11:22.077Z,4.79
2023-03-11T03:13:48.736Z,4.68
2023-03-11T03:16:15.296Z,4.59
2023-03-11T03:18:41.875Z,4.48
2023-03-11T03:21:08.390Z,4.45
2023-03-11T03:23:35.257Z,4.47
2023-03-11T03:26:02.399Z,4.36
2023-03-11T03:28:28.933Z,4.39
2023-03-11T03:30:55.513Z,4.31
2023-03-11T03:33:22.202Z,4.30
2023-03-11T03:35:48.825Z,4.35
2023-03-11T03:38:15.359Z,4.38
2023-03-11T03:40:46.028Z,4.86
2023-03-11T03:43:12.614Z,5.13
2023-03-11T03:45:39.221Z,4.99
2023-03-11T03:48:06.488Z,4.89
2023-03-11T03:50:33.075Z,5.04
2023-03-11T03:52:59.615Z,4.99
2023-03-11T03:55:26.189Z,4.89
2023-03-11T03:57:52.751Z,4.85
2023-03-11T04:00:19.544Z,4.94
2023-03-11T04:02:46.061Z,4.98
2023-03-11T04:05:12.592Z,4.95
2023-03-11T04:07:39.123Z,4.89
2023-03-11T04:10:05.997Z,4.87
2023-03-11T04:12:32.657Z,4.98
2023-03-11T04:14:59.169Z,4.95
2023-03-11T04:17:25.696Z,4.87
2023-03-11T04:19:52.217Z,4.88
2023-03-11T04:22:18.727Z,4.85
2023-03-11T04:24:45.285Z,4.85
2023-03-11T04:27:11.786Z,4.83
2023-03-11T04:29:38.306Z,4.80
2023-03-11T04:32:05.032Z,4.74
2023-03-11T04:34:31.563Z,4.64
2023-03-11T04:36:58.198Z,4.71
2023-03-11T04:39:24.736Z,4.58
2023-03-11T04:41:51.243Z,4.60
2023-03-11T04:44:17.796Z,4.72
2023-03-11T04:46:44.307Z,4.79
2023-03-11T04:49:10.887Z,4.78
2023-03-11T04:51:37.512Z,4.78
2023-03-11T04:54:04.134Z,4.84
2023-03-11T04:56:30.692Z,4.89
2023-03-11T04:58:57.239Z,4.98
2023-03-11T05:01:23.804Z,5.08
2023-03-11T05:03:50.313Z,4.97
2023-03-11T05:06:16.885Z,4.86
2023-03-11T05:08:43.394Z,4.78
2023-03-11T05:11:09.910Z,4.87
2023-03-11T05:13:36.492Z,4.91
2023-03-11T05:16:03.085Z,4.94
2023-03-11T05:18:31.225Z,5.00
2023-03-11T05:20:57.752Z,5.02
2023-03-11T05:23:24.273Z,4.89
2023-03-11T05:25:50.843Z,4.85
2023-03-11T05:28:17.457Z,4.85
2023-03-11T05:30:43.959Z,4.83
2023-03-11T05:33:10.478Z,4.79
2023-03-11T05:35:37.094Z,4.88
2023-03-11T05:38:03.674Z,4.83
2023-03-11T05:43:11.489Z,4.77
2023-03-11T05:48:13.360Z,4.75
2023-03-11T05:50:39.894Z,4.71
2023-03-11T05:53:06.383Z,4.65
2023-03-11T05:55:32.917Z,4.58
2023-03-11T05:57:59.475Z,4.51
2023-03-11T06:00:29.140Z,4.49
2023-03-11T06:02:55.697Z,4.44
2023-03-11T06:05:22.252Z,4.35
2023-03-11T06:07:48.907Z,4.35
2023-03-11T06:10:15.453Z,4.36
2023-03-11T06:12:42.028Z,4.37
2023-03-11T06:15:08.776Z,4.40
2023-03-11T06:17:35.321Z,4.39
2023-03-11T06:22:41.134Z,4.54
2023-03-11T06:25:08.222Z,4.75
2023-03-11T06:27:34.703Z,4.90
2023-03-11T06:30:01.289Z,5.28
2023-03-11T06:32:29.733Z,5.63
2023-03-11T06:34:56.401Z,5.83
2023-03-11T06:37:25.131Z,5.92
2023-03-11T06:39:55.089Z,5.92
2023-03-11T06:42:24.035Z,6.12
2023-03-11T06:44:50.565Z,5.87
2023-03-11T06:49:26.239Z,5.50
2023-03-11T06:54:32.479Z,5.46
2023-03-11T06:56:59.052Z,5.61
2023-03-11T06:59:25.605Z,5.74
2023-03-11T07:01:52.195Z,5.96
2023-03-11T07:04:18.754Z,6.00
2023-03-11T07:06:45.350Z,6.24
2023-03-11T07:09:12.050Z,6.18
2023-03-11T07:11:38.760Z,6.10
2023-03-11T07:14:05.586Z,6.23
2023-03-11T07:16:32.475Z,6.26
2023-03-11T07:19:01.018Z,6.03
2023-03-11T07:21:28.315Z,5.87
2023-03-11T07:24:48.440Z,5.86
2023-03-11T07:29:55.422Z,6.24
2023-03-11T07:32:21.975Z,6.65
2023-03-11T07:34:48.510Z,6.88
2023-03-11T07:37:15.415Z,6.85
2023-03-11T07:39:42.029Z,7.01
2023-03-11T07:42:26.458Z,7.08
2023-03-11T07:44:53.097Z,6.99
2023-03-11T07:47:19.919Z,6.96
2023-03-11T07:49:46.462Z,7.05
2023-03-11T07:52:13.005Z,6.81
2023-03-11T07:54:39.523Z,6.98
2023-03-11T07:57:07.484Z,7.01
2023-03-11T07:59:34.042Z,6.96
2023-03-11T08:02:02.858Z,7.10
2023-03-11T08:04:30.524Z,7.11
2023-03-11T08:06:57.102Z,6.98
2023-03-11T08:09:23.657Z,6.85
2023-03-11T08:11:50.158Z,6.90
2023-03-11T08:14:16.763Z,6.96
2023-03-11T08:16:43.276Z,6.82
2023-03-11T08:19:11.814Z,6.78
2023-03-11T08:21:38.412Z,6.68
2023-03-11T08:24:06.813Z,6.71
2023-03-11T08:26:33.695Z,6.78
2023-03-11T08:29:00.280Z,6.73
2023-03-11T08:31:29.591Z,6.85
2023-03-11T08:34:07.474Z,6.95
2023-03-11T08:36:34.911Z,6.81
2023-03-11T08:39:01.899Z,6.80
2023-03-11T08:41:28.775Z,7.00
2023-03-11T08:43:55.298Z,6.94
2023-03-11T08:46:26.621Z,6.96
2023-03-11T08:48:53.840Z,6.85
2023-03-11T08:51:20.463Z,6.86
2023-03-11T08:56:27.020Z,6.74
2023-03-11T08:58:53.733Z,6.80
2023-03-11T09:01:20.460Z,6.78
2023-03-11T09:03:47.373Z,6.82
2023-03-11T09:06:15.546Z,6.80
2023-03-11T09:08:42.528Z,7.02
2023-03-11T09:11:09.593Z,6.83
2023-03-11T09:13:36.264Z,6.95
2023-03-11T09:16:05.961Z,7.15
2023-03-11T09:18:32.491Z,7.06
2023-03-11T09:21:00.474Z,6.91
2023-03-11T09:23:26.999Z,7.04
2023-03-11T09:28:33.954Z,7.24
2023-03-11T09:31:00.619Z,7.42
2023-03-11T09:33:27.252Z,7.36
2023-03-11T09:35:53.960Z,7.49
2023-03-11T09:38:20.516Z,7.25
2023-03-11T09:40:51.574Z,7.34
2023-03-11T09:43:18.066Z,7.31
2023-03-11T09:45:57.117Z,7.06
2023-03-11T09:48:36.855Z,7.19
2023-03-11T09:51:09.146Z,7.24
2023-03-11T09:53:41.427Z,7.44
2023-03-11T09:56:11.113Z,7.46
2023-03-11T09:58:40.076Z,7.42
2023-03-11T10:01:18.928Z,7.41
2023-03-11T10:03:45.857Z,7.58
2023-03-11T10:06:29.441Z,7.72
2023-03-11T10:09:14.413Z,7.80
2023-03-11T10:11:52.495Z,7.94
2023-03-11T10:14:29.134Z,7.89
2023-03-11T10:17:12.821Z,7.61
2023-03-11T10:19:46.913Z,7.55
2023-03-11T10:22:19.420Z,7.75
2023-03-11T10:24:46.068Z,7.59
2023-03-11T10:27:16.993Z,7.62
2023-03-11T10:29:54.863Z,7.43
2023-03-11T10:32:44.515Z,7.38
2023-03-11T10:35:29.254Z,7.49
2023-03-11T10:38:00.846Z,7.34
2023-03-11T10:43:05.847Z,7.38
2023-03-11T10:45:36.676Z,7.45
2023-03-11T10:48:03.283Z,7.58
2023-03-11T10:50:51.421Z,7.65
2023-03-11T10:53:19.771Z,7.84
2023-03-11T10:55:56.631Z,7.80
2023-03-11T10:58:28.130Z,7.80
2023-03-11T11:01:01.240Z,8.01
2023-03-11T11:03:28.587Z,8.16
2023-03-11T11:06:06.200Z,8.13
2023-03-11T11:08:33.149Z,7.95
2023-03-11T11:11:01.026Z,8.02
2023-03-11T11:13:30.312Z,8.00
2023-03-11T11:15:59.056Z,8.13
2023-03-11T11:18:28.105Z,8.09
2023-03-11T11:20:54.733Z,8.15
2023-03-11T11:23:31.135Z,8.33
2023-03-11T11:25:59.024Z,8.12
2023-03-11T11:28:25.850Z,7.91
2023-03-11T11:30:52.414Z,7.71
2023-03-11T11:33:40.073Z,7.67
2023-03-11T11:36:12.175Z,7.89
2023-03-11T11:38:38.765Z,8.07
2023-03-11T11:41:05.730Z,7.94
2023-03-11T11:43:35.246Z,8.05
2023-03-11T11:46:13.006Z,7.99
2023-03-11T11:48:42.724Z,7.92
2023-03-11T11:51:17.401Z,7.91
2023-03-11T11:53:56.306Z,7.83
2023-03-11T11:56:24.092Z,7.75
2023-03-11T11:58:50.582Z,7.74
2023-03-11T12:01:22.215Z,7.54
2023-03-11T12:04:07.377Z,7.75
2023-03-11T12:07:18.629Z,7.58
2023-03-11T12:09:51.378Z,7.64
2023-03-11T12:12:24.271Z,7.64
2023-03-11T12:15:08.665Z,7.61
2023-03-11T12:17:37.278Z,7.55
2023-03-11T12:20:12.344Z,7.46
2023-03-11T12:22:41.910Z,7.39
2023-03-11T12:25:22.136Z,7.50
2023-03-11T12:27:59.744Z,7.55
2023-03-11T12:30:31.540Z,7.31
2023-03-11T12:33:03.576Z,7.39
2023-03-11T12:35:31.750Z,7.53
2023-03-11T12:38:01.350Z,7.38
2023-03-11T12:40:46.124Z,7.44
2023-03-11T12:43:30.993Z,7.27
2023-03-11T12:46:01.080Z,7.28
2023-03-11T12:48:27.567Z,7.28
2023-03-11T12:50:54.691Z,7.32
2023-03-11T12:53:41.103Z,7.27
2023-03-11T12:59:06.363Z,7.24
2023-03-11T13:01:48.099Z,7.22
2023-03-11T13:04:25.326Z,7.14
2023-03-11T13:06:55.153Z,7.08
2023-03-11T13:09:21.815Z,7.15
2023-03-11T13:11:48.832Z,7.21
2023-03-11T13:14:16.360Z,7.26
2023-03-11T13:16:43.866Z,7.27
2023-03-11T13:19:29.245Z,7.14
2023-03-11T13:21:59.577Z,7.10
2023-03-11T13:24:26.163Z,7.03
2023-03-11T13:26:58.506Z,6.98
2023-03-11T13:31:38.476Z,6.98
2023-03-11T13:37:10.038Z,6.86
2023-03-11T13:42:37.669Z,6.63
2023-03-11T13:45:05.091Z,6.57
2023-03-11T13:47:32.210Z,6.55
2023-03-11T13:50:03.332Z,6.53
2023-03-11T13:52:34.994Z,6.57
2023-03-11T13:55:06.450Z,6.58
2023-03-11T13:57:36.956Z,6.51
2023-03-11T14:00:17.913Z,6.37
2023-03-11T14:02:51.143Z,6.31
2023-03-11T14:05:20.233Z,6.31
2023-03-11T14:07:46.823Z,6.42
2023-03-11T14:10:25.521Z,6.41
2023-03-11T14:12:52.809Z,6.40
2023-03-11T14:15:21.699Z,6.30
2023-03-11T14:17:48.894Z,6.19
2023-03-11T14:20:22.431Z,6.13
2023-03-11T14:22:50.609Z,6.18
2023-03-11T14:25:32.218Z,6.23
2023-03-11T14:28:01.029Z,6.17
2023-03-11T14:30:31.757Z,6.13
2023-03-11T14:33:01.555Z,6.12
2023-03-11T14:35:28.475Z,6.11
2023-03-11T14:37:55.307Z,6.14
2023-03-11T14:40:23.676Z,6.14
2023-03-11T14:42:53.933Z,6.04
2023-03-11T14:45:22.689Z,5.97
2023-03-11T14:48:04.682Z,5.90
2023-03-11T14:50:33.750Z,5.86
2023-03-11T14:53:29.330Z,5.81
2023-03-11T14:55:57.903Z,5.83
2023-03-11T14:58:29.234Z,5.78
2023-03-11T15:01:02.208Z,5.76
2023-03-11T15:03:33.778Z,5.73
2023-03-11T15:06:06.204Z,5.69
2023-03-11T15:11:44.093Z,5.55
2023-03-11T15:14:16.803Z,5.52
2023-03-11T15:16:43.338Z,5.53
2023-03-11T15:19:23.018Z,5.50
2023-03-11T15:21:51.097Z,5.47
2023-03-11T15:24:22.390Z,5.45
2023-03-11T15:27:00.660Z,5.42
2023-03-11T15:29:27.593Z,5.42
2023-03-11T15:31:54.528Z,5.34
2023-03-11T15:34:23.780Z,5.29
2023-03-11T15:36:50.301Z,5.20
2023-03-11T15:39:25.679Z,5.19
2023-03-11T15:41:58.097Z,5.16
2023-03-11T15:44:27.950Z,5.13
2023-03-11T15:46:54.503Z,5.08
2023-03-11T15:52:01.571Z,5.07
2023-03-11T15:54:28.226Z,5.05
2023-03-11T15:56:55.452Z,5.08
2023-03-11T16:01:30.134Z,4.96
2023-03-11T16:03:56.773Z,4.92
2023-03-11T16:06:23.348Z,4.93
2023-03-11T16:08:50.246Z,4.95
2023-03-11T16:11:18.812Z,4.91
2023-03-11T16:13:45.448Z,4.86
2023-03-11T16:16:18.484Z,4.81
2023-03-11T16:18:45.055Z,4.78
2023-03-11T16:21:17.236Z,4.75
2023-03-11T16:23:51.483Z,4.72
2023-03-11T16:26:19.149Z,4.66
2023-03-11T16:28:45.673Z,4.64
2023-03-11T16:31:12.262Z,4.66
2023-03-11T16:33:39.118Z,4.60
2023-03-11T16:36:05.851Z,4.57
2023-03-11T16:38:41.419Z,4.52
2023-03-11T16:41:07.916Z,4.53
2023-03-11T16:43:34.512Z,4.47
2023-03-11T16:46:01.081Z,4.44
2023-03-11T16:48:27.882Z,4.36
2023-03-11T16:50:54.448Z,4.32
2023-03-11T16:53:21.018Z,4.26
2023-03-11T16:55:47.904Z,4.21
2023-03-11T16:58:14.725Z,4.17
2023-03-11T17:00:42.093Z,4.15
2023-03-11T17:03:11.239Z,4.03
2023-03-11T17:05:37.797Z,3.86
2023-03-11T17:08:04.536Z,3.72
2023-03-11T17:10:42.810Z,3.71
2023-03-11T17:13:10.332Z,3.71
2023-03-11T17:15:38.430Z,3.64
2023-03-11T17:18:05.589Z,3.66
2023-03-11T17:20:32.193Z,3.62
2023-03-11T17:22:58.779Z,3.56
2023-03-11T17:25:25.297Z,3.59
2023-03-11T17:27:51.854Z,3.56
2023-03-11T17:30:35.537Z,3.45
2023-03-11T17:33:02.932Z,3.30
2023-03-11T17:38:00.240Z,3.31
2023-03-11T17:40:29.342Z,3.23
2023-03-11T17:42:56.216Z,3.13
2023-03-11T17:45:22.714Z,3.07
2023-03-11T17:47:49.214Z,3.05
2023-03-11T17:50:15.847Z,3.02
2023-03-11T17:55:18.774Z,3.09
2023-03-11T17:57:46.034Z,3.05
2023-03-11T18:00:14.959Z,3.08
2023-03-11T18:02:41.809Z,2.94
2023-03-11T18:05:09.455Z,2.83
2023-03-11T18:07:39.060Z,2.78
2023-03-11T18:10:06.763Z,2.70
2023-03-11T18:12:33.741Z,2.75
2023-03-11T18:15:01.381Z,2.66
2023-03-11T18:17:29.026Z,2.62
2023-03-11T18:19:55.658Z,2.51
2023-03-11T18:22:22.162Z,2.44
2023-03-11T18:24:48.740Z,2.47
2023-03-11T18:27:15.240Z,2.41
2023-03-11T18:29:41.851Z,2.36
2023-03-11T18:32:08.477Z,2.39
2023-03-11T18:34:35.475Z,2.48
2023-03-11T18:37:02.185Z,2.71
2023-03-11T18:39:28.685Z,2.65
2023-03-11T18:41:55.187Z,2.76
2023-03-11T18:46:53.627Z,2.67
2023-03-11T18:49:20.141Z,2.60
2023-03-11T18:51:46.689Z,2.53
2023-03-11T18:54:13.188Z,2.45
2023-03-11T18:56:39.695Z,2.36
2023-03-11T18:59:06.280Z,2.32
2023-03-11T19:01:34.491Z,2.45
2023-03-11T19:04:01.181Z,2.45
2023-03-11T19:06:28.626Z,2.43
2023-03-11T19:08:55.927Z,2.38
2023-03-11T19:11:23.334Z,2.30
2023-03-11T19:13:50.356Z,2.31
2023-03-11T19:16:18.372Z,2.33
2023-03-11T19:18:44.979Z,2.34
2023-03-11T19:21:12.698Z,2.32
2023-03-11T19:23:39.240Z,2.39
2023-03-11T19:26:05.991Z,2.42
2023-03-11T19:28:32.479Z,2.39
2023-03-11T19:30:59.449Z,2.32
2023-03-11T19:33:26.384Z,2.32
2023-03-11T19:35:53.797Z,2.35
2023-03-11T19:38:20.620Z,2.33
2023-03-11T19:40:51.246Z,2.24
2023-03-11T19:43:19.357Z,2.19
2023-03-11T19:45:52.014Z,2.13
2023-03-11T19:48:20.090Z,2.06
2023-03-11T19:50:50.136Z,2.04
2023-03-11T19:53:17.171Z,2.00
2023-03-11T19:55:44.608Z,2.03
2023-03-11T19:58:11.500Z,2.02
2023-03-11T20:00:39.583Z,1.99
2023-03-11T20:03:06.157Z,1.97
2023-03-11T20:05:34.512Z,1.88
2023-03-11T20:08:01.009Z,1.96
2023-03-11T20:10:27.580Z,1.93
2023-03-11T20:13:02.008Z,1.87
2023-03-11T20:15:29.410Z,1.79
2023-03-11T20:18:51.581Z,1.85
2023-03-11T20:21:18.172Z,1.89
2023-03-11T20:23:44.700Z,1.83
2023-03-11T20:26:15.273Z,1.74
2023-03-11T20:28:41.888Z,1.61
2023-03-11T20:31:12.580Z,1.62
2023-03-11T20:33:39.218Z,1.59
2023-03-11T20:36:06.877Z,1.56
2023-03-11T20:38:33.587Z,1.59
2023-03-11T20:41:00.256Z,1.64
2023-03-11T20:43:26.842Z,1.71
2023-03-11T20:45:53.378Z,1.58
2023-03-11T20:48:19.999Z,1.54
2023-03-11T20:50:46.562Z,1.55
2023-03-11T20:53:13.178Z,1.50
2023-03-11T20:55:41.042Z,1.43
2023-03-11T20:58:07.949Z,1.36
2023-03-11T21:00:35.146Z,1.33
2023-03-11T21:03:02.004Z,1.31
2023-03-11T21:06:18.114Z,1.30
2023-03-11T21:08:44.707Z,1.21
2023-03-11T21:11:11.323Z,1.22
2023-03-11T21:13:38.150Z,1.13
2023-03-11T21:16:05.969Z,1.06
2023-03-11T21:18:32.740Z,1.04
2023-03-11T21:20:59.339Z,0.97
2023-03-11T21:23:26.046Z,0.92
2023-03-11T21:26:02.606Z,0.84
2023-03-11T21:28:29.306Z,0.83
2023-03-11T21:33:13.314Z,0.65
2023-03-11T21:35:40.114Z,0.58
2023-03-11T21:38:06.671Z,0.38
2023-03-11T21:40:33.454Z,0.42
2023-03-11T21:43:00.156Z,0.43
2023-03-11T21:45:26.733Z,0.41
2023-03-11T21:47:53.486Z,0.24
2023-03-11T21:50:20.281Z,0.11
2023-03-11T21:52:46.871Z,0.04
2023-03-11T21:55:13.571Z,-0.01
2023-03-11T21:58:17.854Z,-0.19
2023-03-11T22:00:44.578Z,-0.19
2023-03-11T22:03:11.288Z,-0.11
2023-03-11T22:05:38.007Z,-0.22
2023-03-11T22:08:05.221Z,-0.23
2023-03-11T22:10:32.423Z,-0.18
2023-03-11T22:12:59.127Z,-0.25
2023-03-11T22:15:25.844Z,-0.19
2023-03-11T22:17:52.573Z,-0.19
2023-03-11T22:20:19.148Z,-0.32
2023-03-11T22:22:45.611Z,-0.39
2023-03-11T22:25:12.258Z,-0.36
2023-03-11T22:27:40.311Z,-0.31
2023-03-11T22:30:07.309Z,-0.40
2023-03-11T22:32:34.764Z,-0.45
2023-03-11T22:37:39.996Z,-0.51
2023-03-11T22:40:10.346Z,-0.57
2023-03-11T22:42:37.263Z,-0.56
2023-03-11T22:45:40.671Z,-0.55
2023-03-11T22:48:07.715Z,-0.55
2023-03-11T22:50:34.547Z,-0.59
2023-03-11T22:53:01.145Z,-0.57
2023-03-11T22:55:27.688Z,-0.64
2023-03-11T22:57:54.272Z,-0.59
2023-03-11T23:00:22.098Z,-0.49
2023-03-11T23:03:03.513Z,-0.38
2023-03-11T23:05:30.208Z,-0.39
2023-03-11T23:07:56.699Z,-0.48
2023-03-11T23:09:34.967Z,-0.43
2023-03-11T23:12:03.730Z,-0.38
2023-03-11T23:14:43.586Z,-0.42
2023-03-11T23:17:11.419Z,-0.34
2023-03-11T23:19:38.023Z,-0.34
2023-03-11T23:22:04.619Z,-0.39
2023-03-11T23:24:31.184Z,-0.41
2023-03-11T23:27:48.585Z,-0.43
2023-03-11T23:30:15.894Z,-0.40
2023-03-11T23:32:42.889Z,-0.30
2023-03-11T23:35:09.771Z,-0.33
2023-03-11T23:37:36.290Z,-0.27
2023-03-11T23:40:05.031Z,-0.14
2023-03-11T23:42:35.103Z,-0.18
2023-03-11T23:45:01.728Z,-0.24
2023-03-11T23:47:28.761Z,-0.28
2023-03-11T23:49:55.322Z,-0.26
2023-03-11T23:52:21.915Z,-0.22
2023-03-11T23:54:48.453Z,-0.17
2023-03-11T23:57:14.974Z,-0.07
2023-03-11T23:59:41.514Z,0.03
